< < Back
Terminal Aerodrome Forecast


Current Version              Previous Versions:   1  2  3  4  5  6  7  8  9  

Terminal Aerodrome Forecast

887
FTUS44 KBMX 251132
TAFTCL
TAF
KTCL 251132Z 2512/2612 12003KT P6SM SKC
     FM251900 15006KT P6SM VCTS SCT050CB SCT250
     FM260100 13003KT P6SM SCT250=

Latest METAR

302
SAUS70 KWBC 251600
MTRTCL
METAR KTCL 251553Z VRB04KT 10SM CLR 31/22 A3005 RMK AO2 SLP172
T03110222


USA.gov is the U.S. government's official web portal to all federal, state and local government web resources and services.